createdAt,value
2018-05-29T00:00:01.752Z,19.27
2018-05-29T00:02:30.037Z,19.11
2018-05-29T00:04:58.327Z,18.99
2018-05-29T00:07:26.607Z,19.17
2018-05-29T00:09:57.645Z,19.13
2018-05-29T00:12:25.904Z,19.07
2018-05-29T00:14:55.244Z,18.98
2018-05-29T00:17:23.567Z,18.93
2018-05-29T00:19:51.884Z,18.85
2018-05-29T00:22:21.101Z,18.96
2018-05-29T00:24:49.367Z,18.98
2018-05-29T00:27:17.646Z,18.96
2018-05-29T00:29:45.949Z,18.84
2018-05-29T00:32:15.041Z,18.87
2018-05-29T00:34:43.757Z,18.82
2018-05-29T00:37:12.004Z,18.86
2018-05-29T00:39:40.286Z,18.81
2018-05-29T00:42:08.580Z,18.79
2018-05-29T00:44:37.639Z,18.81
2018-05-29T00:47:05.921Z,18.75
2018-05-29T00:49:34.590Z,18.69
2018-05-29T00:52:02.866Z,18.43
2018-05-29T00:54:31.194Z,18.44
2018-05-29T00:57:00.231Z,18.50
2018-05-29T00:59:28.546Z,18.63
2018-05-29T01:01:57.326Z,18.54
2018-05-29T01:04:25.617Z,18.34
2018-05-29T01:06:53.935Z,18.39
2018-05-29T01:09:23.143Z,18.34
2018-05-29T01:11:51.433Z,18.42
2018-05-29T01:14:19.720Z,18.49
2018-05-29T01:16:47.983Z,18.44
2018-05-29T01:19:16.272Z,18.35
2018-05-29T01:21:44.592Z,18.45
2018-05-29T01:24:12.885Z,18.32
2018-05-29T01:26:43.308Z,18.31
2018-05-29T01:29:11.606Z,18.43
2018-05-29T01:31:40.645Z,18.36
2018-05-29T01:34:09.682Z,18.21
2018-05-29T01:36:37.956Z,18.16
2018-05-29T01:39:06.246Z,18.16
2018-05-29T01:41:35.283Z,18.17
2018-05-29T01:44:03.576Z,18.09
2018-05-29T01:46:31.874Z,18.21
2018-05-29T01:49:00.158Z,18.08
2018-05-29T01:51:28.444Z,18.02
2018-05-29T01:53:57.485Z,18.03
2018-05-29T01:56:25.783Z,18.06
2018-05-29T01:58:54.064Z,17.91
2018-05-29T02:01:23.090Z,17.91
2018-05-29T02:03:52.302Z,17.96
2018-05-29T02:06:20.588Z,18.04
2018-05-29T02:08:48.875Z,18.10
2018-05-29T02:11:17.191Z,18.00
2018-05-29T02:13:45.472Z,17.84
2018-05-29T02:16:13.774Z,17.94
2018-05-29T02:18:42.056Z,17.86
2018-05-29T02:21:12.374Z,17.76
2018-05-29T02:23:41.146Z,17.85
2018-05-29T02:26:09.428Z,17.96
2018-05-29T02:28:37.717Z,17.79
2018-05-29T02:31:05.992Z,17.73
2018-05-29T02:33:34.303Z,17.72
2018-05-29T02:36:02.594Z,17.63
2018-05-29T02:38:30.882Z,17.48
2018-05-29T02:40:59.163Z,17.43
2018-05-29T02:43:27.441Z,17.53
2018-05-29T02:45:56.774Z,17.50
2018-05-29T02:48:25.064Z,17.50
2018-05-29T02:50:53.790Z,17.48
2018-05-29T02:53:22.794Z,17.60
2018-05-29T02:55:51.058Z,17.65
2018-05-29T02:58:19.348Z,17.58
2018-05-29T03:00:47.732Z,17.37
2018-05-29T03:03:16.002Z,17.38
2018-05-29T03:05:44.288Z,17.38
2018-05-29T03:08:12.582Z,17.46
2018-05-29T03:10:40.892Z,17.46
2018-05-29T03:13:09.231Z,17.45
2018-05-29T03:15:37.518Z,17.54
2018-05-29T03:18:06.585Z,17.52
2018-05-29T03:20:34.886Z,17.60
2018-05-29T03:23:04.132Z,17.64
2018-05-29T03:25:32.393Z,17.69
2018-05-29T03:28:05.671Z,17.65
2018-05-29T03:30:33.930Z,17.71
2018-05-29T03:33:02.212Z,17.73
2018-05-29T03:35:31.443Z,17.70
2018-05-29T03:37:59.724Z,17.69
2018-05-29T03:40:28.095Z,17.64
2018-05-29T03:42:57.177Z,17.63
2018-05-29T03:45:25.460Z,17.66
2018-05-29T03:47:53.777Z,17.60
2018-05-29T03:50:22.804Z,17.56
2018-05-29T03:52:51.071Z,17.50
2018-05-29T03:55:19.367Z,17.58
2018-05-29T03:57:47.643Z,17.61
2018-05-29T04:00:15.967Z,17.44
2018-05-29T04:02:44.242Z,17.40
2018-05-29T04:05:13.422Z,17.44
2018-05-29T04:07:42.506Z,17.53
2018-05-29T04:10:10.788Z,17.38
2018-05-29T04:12:39.972Z,17.40
2018-05-29T04:15:08.240Z,17.44
2018-05-29T04:17:36.513Z,17.53
2018-05-29T04:20:04.818Z,17.61
2018-05-29T04:22:33.102Z,17.68
2018-05-29T04:25:01.529Z,17.59
2018-05-29T04:27:30.603Z,17.51
2018-05-29T04:29:58.893Z,17.62
2018-05-29T04:32:27.279Z,17.68
2018-05-29T04:34:57.230Z,17.53
2018-05-29T04:37:25.554Z,17.51
2018-05-29T04:39:53.831Z,17.53
2018-05-29T04:42:22.137Z,17.65
2018-05-29T04:44:51.235Z,17.57
2018-05-29T04:47:19.510Z,17.69
2018-05-29T04:49:48.576Z,17.70
2018-05-29T04:52:16.873Z,17.82
2018-05-29T04:54:45.149Z,17.88
2018-05-29T04:57:13.444Z,17.85
2018-05-29T04:59:41.716Z,17.87
2018-05-29T05:02:10.772Z,17.92
2018-05-29T05:04:39.081Z,18.02
2018-05-29T05:07:07.377Z,18.08
2018-05-29T05:09:36.441Z,18.14
2018-05-29T05:12:04.718Z,18.24
2018-05-29T05:14:32.985Z,18.32
2018-05-29T05:17:01.317Z,18.32
2018-05-29T05:19:29.691Z,18.36
2018-05-29T05:21:58.785Z,18.39
2018-05-29T05:24:27.091Z,18.52
2018-05-29T05:26:55.350Z,18.57
2018-05-29T05:29:23.687Z,18.71
2018-05-29T05:31:51.965Z,18.81
2018-05-29T05:34:20.245Z,18.88
2018-05-29T05:36:48.569Z,18.97
2018-05-29T05:39:16.848Z,19.00
2018-05-29T05:41:45.127Z,19.12
2018-05-29T05:44:13.416Z,19.14
2018-05-29T05:46:41.701Z,19.23
2018-05-29T05:49:09.984Z,19.32
2018-05-29T05:51:38.286Z,19.40
2018-05-29T05:54:06.578Z,19.43
2018-05-29T05:56:34.865Z,19.46
2018-05-29T05:59:03.163Z,19.50
2018-05-29T06:01:31.436Z,19.51
2018-05-29T06:04:00.527Z,19.53
2018-05-29T06:06:28.808Z,19.57
2018-05-29T06:08:57.849Z,19.61
2018-05-29T06:11:26.145Z,19.70
2018-05-29T06:13:54.431Z,19.75
2018-05-29T06:16:22.810Z,19.78
2018-05-29T06:18:51.053Z,19.89
2018-05-29T06:21:19.322Z,19.98
2018-05-29T06:23:47.629Z,20.07
2018-05-29T06:26:15.896Z,20.15
2018-05-29T06:28:44.217Z,20.20
2018-05-29T06:31:13.275Z,20.25
2018-05-29T06:33:41.577Z,20.30
2018-05-29T06:36:09.901Z,20.34
2018-05-29T06:38:38.181Z,20.42
2018-05-29T06:41:06.473Z,20.40
2018-05-29T06:43:34.749Z,20.52
2018-05-29T06:46:03.931Z,20.60
2018-05-29T06:48:33.674Z,20.66
2018-05-29T06:51:01.949Z,20.74
2018-05-29T06:53:30.282Z,20.73
2018-05-29T06:55:58.573Z,20.81
2018-05-29T06:58:26.855Z,20.86
2018-05-29T07:00:55.160Z,20.91
2018-05-29T07:03:23.449Z,20.94
2018-05-29T07:05:51.719Z,20.98
2018-05-29T07:08:19.992Z,21.07
2018-05-29T07:10:48.274Z,21.11
2018-05-29T07:13:17.394Z,21.14
2018-05-29T07:15:45.695Z,21.24
2018-05-29T07:18:15.019Z,21.34
2018-05-29T07:20:43.300Z,21.45
2018-05-29T07:23:11.580Z,21.55
2018-05-29T07:25:39.871Z,21.63
2018-05-29T07:28:08.159Z,21.75
2018-05-29T07:30:36.468Z,21.78
2018-05-29T07:33:04.744Z,21.84
2018-05-29T07:35:33.033Z,21.95
2018-05-29T07:38:01.338Z,22.03
2018-05-29T07:40:30.393Z,22.08
2018-05-29T07:42:58.684Z,22.13
2018-05-29T07:45:27.648Z,22.13
2018-05-29T07:47:55.976Z,22.18
2018-05-29T07:50:24.303Z,22.30
2018-05-29T07:52:52.587Z,22.39
2018-05-29T07:55:20.882Z,22.40
2018-05-29T07:57:49.171Z,22.47
2018-05-29T08:00:17.459Z,22.56
2018-05-29T08:02:46.514Z,22.59
2018-05-29T08:05:14.813Z,22.58
2018-05-29T08:07:43.113Z,22.61
2018-05-29T08:10:12.175Z,22.59
2018-05-29T08:12:40.447Z,22.58
2018-05-29T08:15:08.756Z,22.62
2018-05-29T08:17:37.083Z,22.54
2018-05-29T08:20:05.367Z,22.54
2018-05-29T08:22:33.664Z,22.61
2018-05-29T08:25:01.955Z,22.70
2018-05-29T08:27:30.222Z,22.78
2018-05-29T08:29:58.525Z,22.84
2018-05-29T08:32:30.549Z,22.86
2018-05-29T08:34:58.848Z,22.97
2018-05-29T08:37:27.132Z,23.08
2018-05-29T08:39:55.410Z,23.17
2018-05-29T08:42:23.756Z,23.26
2018-05-29T08:44:52.020Z,23.38
2018-05-29T08:47:21.041Z,23.45
2018-05-29T08:49:49.317Z,23.53
2018-05-29T08:52:17.574Z,23.66
2018-05-29T08:54:45.872Z,23.72
2018-05-29T08:57:14.169Z,23.84
2018-05-29T08:59:42.449Z,23.89
2018-05-29T09:02:11.722Z,24.01
2018-05-29T09:04:39.996Z,24.11
2018-05-29T09:07:08.282Z,24.17
2018-05-29T09:09:36.621Z,24.21
2018-05-29T09:12:07.781Z,24.27
2018-05-29T09:14:36.076Z,24.25
2018-05-29T09:17:04.348Z,24.24
2018-05-29T09:19:32.608Z,24.20
2018-05-29T09:22:00.912Z,24.16
2018-05-29T09:24:30.074Z,24.29
2018-05-29T09:26:58.403Z,24.38
2018-05-29T09:29:26.660Z,24.35
2018-05-29T09:31:54.960Z,24.40
2018-05-29T09:34:23.278Z,24.39
2018-05-29T09:36:51.569Z,24.35
2018-05-29T09:39:20.628Z,24.15
2018-05-29T09:41:48.905Z,24.13
2018-05-29T09:44:17.176Z,24.16
2018-05-29T09:46:45.464Z,24.06
2018-05-29T09:49:13.725Z,23.91
2018-05-29T09:51:42.014Z,23.73
2018-05-29T09:54:10.300Z,23.62
2018-05-29T09:56:38.579Z,23.69
2018-05-29T09:59:06.880Z,23.66
2018-05-29T10:01:35.814Z,23.69
2018-05-29T10:04:04.099Z,23.64
2018-05-29T10:06:32.376Z,23.58
2018-05-29T10:09:00.645Z,23.62
2018-05-29T10:11:28.924Z,23.66
2018-05-29T10:13:57.198Z,23.60
2018-05-29T10:16:25.516Z,23.53
2018-05-29T10:18:53.795Z,23.60
2018-05-29T10:21:22.925Z,23.62
2018-05-29T10:23:51.236Z,23.60
2018-05-29T10:26:19.500Z,23.59
2018-05-29T10:28:47.793Z,23.70
2018-05-29T10:31:16.075Z,23.67
2018-05-29T10:33:44.379Z,23.64
2018-05-29T10:36:12.718Z,23.71
2018-05-29T10:38:40.988Z,23.74
2018-05-29T10:41:09.276Z,23.81
2018-05-29T10:43:37.549Z,23.84
2018-05-29T10:46:05.854Z,23.90
2018-05-29T10:48:34.151Z,23.94
2018-05-29T10:51:02.433Z,23.95
2018-05-29T10:53:30.748Z,24.00
2018-05-29T10:55:59.021Z,23.96
2018-05-29T10:58:27.286Z,23.89
2018-05-29T11:00:55.588Z,23.87
2018-05-29T11:03:23.882Z,23.80
2018-05-29T11:05:52.154Z,23.86
2018-05-29T11:08:20.432Z,23.78
2018-05-29T11:10:48.744Z,23.71
2018-05-29T11:13:17.055Z,23.80
2018-05-29T11:15:45.350Z,23.86
2018-05-29T11:18:13.643Z,23.92
2018-05-29T11:20:41.932Z,24.02
2018-05-29T11:23:10.209Z,24.04
2018-05-29T11:25:38.481Z,24.18
2018-05-29T11:28:06.769Z,24.26
2018-05-29T11:30:35.073Z,24.19
2018-05-29T11:33:03.367Z,24.13
2018-05-29T11:35:31.651Z,24.08
2018-05-29T11:38:00.734Z,24.10
2018-05-29T11:40:29.028Z,24.05
2018-05-29T11:42:58.113Z,24.15
2018-05-29T11:45:26.365Z,24.04
2018-05-29T11:47:54.642Z,24.14
2018-05-29T11:50:22.942Z,24.22
2018-05-29T11:52:51.214Z,24.27
2018-05-29T11:55:20.886Z,24.27
2018-05-29T11:57:49.221Z,24.34
2018-05-29T12:00:17.510Z,24.35
2018-05-29T12:02:45.790Z,24.38
2018-05-29T12:05:14.074Z,24.43
2018-05-29T12:07:42.385Z,24.35
2018-05-29T12:10:10.695Z,24.25
2018-05-29T12:12:38.986Z,24.27
2018-05-29T12:15:07.438Z,24.23
2018-05-29T12:17:35.721Z,24.26
2018-05-29T12:20:04.002Z,24.25
2018-05-29T12:22:32.300Z,24.20
2018-05-29T12:25:00.565Z,24.16
2018-05-29T12:27:28.883Z,24.23
2018-05-29T12:29:57.977Z,24.13
2018-05-29T12:32:26.261Z,24.12
2018-05-29T12:34:54.564Z,23.96
2018-05-29T12:37:22.853Z,23.89
2018-05-29T12:39:51.181Z,23.95
2018-05-29T12:42:19.464Z,23.93
2018-05-29T12:44:48.554Z,23.97
2018-05-29T12:47:16.838Z,23.79
2018-05-29T12:49:45.891Z,23.75
2018-05-29T12:52:14.162Z,23.86
2018-05-29T12:54:42.437Z,23.95
2018-05-29T12:57:10.726Z,23.90
2018-05-29T12:59:39.023Z,23.88
2018-05-29T13:02:07.298Z,23.97
2018-05-29T13:04:35.610Z,23.96
2018-05-29T13:07:03.886Z,23.86
2018-05-29T13:09:32.911Z,23.85
2018-05-29T13:12:01.235Z,23.90
2018-05-29T13:14:29.501Z,23.98
2018-05-29T13:16:57.774Z,24.05
2018-05-29T13:19:26.106Z,23.98
2018-05-29T13:21:54.411Z,23.88
2018-05-29T13:24:23.279Z,23.84
2018-05-29T13:26:51.566Z,23.91
2018-05-29T13:29:19.855Z,23.76
2018-05-29T13:31:48.122Z,23.54
2018-05-29T13:34:16.415Z,23.38
2018-05-29T13:36:44.699Z,23.27
2018-05-29T13:39:12.999Z,23.27
2018-05-29T13:41:41.276Z,23.32
2018-05-29T13:44:09.563Z,23.35
2018-05-29T13:46:37.833Z,23.34
2018-05-29T13:49:06.132Z,23.37
2018-05-29T13:51:34.426Z,23.38
2018-05-29T13:54:02.713Z,23.38
2018-05-29T13:56:32.502Z,23.25
2018-05-29T13:59:00.722Z,23.24
2018-05-29T14:01:28.995Z,23.31
2018-05-29T14:03:57.311Z,23.39
2018-05-29T14:06:25.575Z,23.38
2018-05-29T14:08:53.907Z,23.38
2018-05-29T14:11:22.151Z,23.49
2018-05-29T14:13:51.448Z,23.64
2018-05-29T14:16:19.736Z,23.87
2018-05-29T14:18:48.043Z,23.82
2018-05-29T14:21:17.496Z,23.98
2018-05-29T14:23:45.805Z,24.12
2018-05-29T14:26:16.204Z,24.36
2018-05-29T14:28:44.497Z,24.67
2018-05-29T14:31:12.768Z,24.68
2018-05-29T14:33:41.067Z,24.88
2018-05-29T14:36:10.126Z,24.94
2018-05-29T14:38:38.380Z,25.17
2018-05-29T14:41:06.711Z,24.94
2018-05-29T14:43:34.997Z,24.85
2018-05-29T14:46:04.024Z,24.67
2018-05-29T14:48:32.332Z,24.57
2018-05-29T14:51:01.455Z,24.70
2018-05-29T14:53:29.750Z,24.73
2018-05-29T14:55:58.811Z,24.86
2018-05-29T14:58:27.099Z,25.04
2018-05-29T15:00:55.447Z,25.03
2018-05-29T15:03:23.713Z,25.26
2018-05-29T15:05:52.023Z,25.37
2018-05-29T15:08:21.525Z,25.28
2018-05-29T15:10:49.816Z,25.18
2018-05-29T15:13:18.122Z,25.06
2018-05-29T15:15:46.422Z,24.94
2018-05-29T15:18:14.781Z,24.85
2018-05-29T15:20:43.841Z,24.58
2018-05-29T15:23:12.097Z,24.49
2018-05-29T15:25:40.397Z,24.54
2018-05-29T15:28:08.744Z,24.53
2018-05-29T15:30:37.015Z,24.50
2018-05-29T15:33:05.319Z,24.48
2018-05-29T15:35:33.626Z,24.36
2018-05-29T15:38:01.900Z,24.28
2018-05-29T15:40:30.181Z,24.18
2018-05-29T15:42:59.516Z,24.22
2018-05-29T16:03:35.206Z,24.91
2018-05-29T16:24:09.154Z,24.58
2018-05-29T16:44:44.435Z,24.65
2018-05-29T17:05:16.626Z,24.87
2018-05-29T17:25:48.832Z,24.25
2018-05-29T17:46:21.950Z,24.02
2018-05-29T18:06:56.571Z,23.99
2018-05-29T18:27:34.644Z,23.36
2018-05-29T18:48:10.835Z,22.63
2018-05-29T19:08:43.038Z,21.99
2018-05-29T19:29:16.159Z,21.37
2018-05-29T19:49:51.437Z,20.79
2018-05-29T20:10:25.508Z,20.20
2018-05-29T20:31:00.441Z,19.81
2018-05-29T20:51:35.331Z,19.58
2018-05-29T21:12:08.219Z,19.07
2018-05-29T21:32:42.575Z,18.84
2018-05-29T21:53:16.973Z,18.58
2018-05-29T22:13:51.198Z,18.10
2018-05-29T22:34:25.011Z,17.95
2018-05-29T22:54:59.358Z,17.79
2018-05-29T23:15:34.637Z,17.54
2018-05-29T23:36:09.907Z,17.10
2018-05-29T23:56:43.025Z,16.85
